createdAt,value
2024-04-22T00:02:07.860Z,3.33
2024-04-22T00:04:35.479Z,3.35
2024-04-22T00:07:02.051Z,4.03
2024-04-22T00:09:28.690Z,3.35
2024-04-22T00:11:55.382Z,3.85
2024-04-22T00:14:22.017Z,3.92
2024-04-22T00:16:48.698Z,3.60
2024-04-22T00:19:15.381Z,3.33
2024-04-22T00:21:42.113Z,4.97
2024-04-22T00:24:08.839Z,4.30
2024-04-22T00:26:35.669Z,4.88
2024-04-22T00:29:02.455Z,3.30
2024-04-22T00:31:29.243Z,3.45
2024-04-22T00:33:55.915Z,3.95
2024-04-22T00:36:22.539Z,3.80
2024-04-22T00:38:49.254Z,6.05
2024-04-22T00:41:15.966Z,5.70
2024-04-22T00:43:42.728Z,3.90
2024-04-22T00:46:09.781Z,4.60
2024-04-22T00:48:37.221Z,4.03
2024-04-22T00:51:04.519Z,3.75
2024-04-22T00:53:32.300Z,4.10
2024-04-22T00:55:59.869Z,4.10
2024-04-22T00:58:27.998Z,3.95
2024-04-22T01:00:57.570Z,4.63
2024-04-22T01:03:24.796Z,5.07
2024-04-22T01:05:51.936Z,5.47
2024-04-22T01:08:18.578Z,3.85
2024-04-22T01:10:45.576Z,4.55
2024-04-22T01:13:12.328Z,4.40
2024-04-22T01:15:39.086Z,3.83
2024-04-22T01:18:05.920Z,4.18
2024-04-22T01:20:32.615Z,4.03
2024-04-22T01:22:59.240Z,4.63
2024-04-22T01:25:29.449Z,3.78
2024-04-22T01:27:56.330Z,3.65
2024-04-22T01:30:22.972Z,4.30
2024-04-22T01:32:49.715Z,4.13
2024-04-22T01:35:16.662Z,5.20
2024-04-22T01:37:43.331Z,3.85
2024-04-22T01:40:10.315Z,4.28
2024-04-22T01:42:37.059Z,5.60
2024-04-22T01:45:03.982Z,3.83
2024-04-22T01:47:30.740Z,3.95
2024-04-22T01:49:57.509Z,6.00
2024-04-22T01:52:24.182Z,3.97
2024-04-22T01:54:50.829Z,6.90
2024-04-22T01:57:17.493Z,4.57
2024-04-22T01:59:44.182Z,4.25
2024-04-22T02:02:11.035Z,4.43
2024-04-22T02:04:37.756Z,4.63
2024-04-22T02:07:04.554Z,3.88
2024-04-22T02:09:31.215Z,3.78
2024-04-22T02:11:57.819Z,4.57
2024-04-22T02:14:24.489Z,4.30
2024-04-22T02:16:51.217Z,4.47
2024-04-22T02:19:17.975Z,4.47
2024-04-22T02:21:44.605Z,4.28
2024-04-22T02:24:11.259Z,4.75
2024-04-22T02:26:37.835Z,4.85
2024-04-22T02:29:04.439Z,4.13
2024-04-22T02:31:31.320Z,4.47
2024-04-22T02:33:58.056Z,4.47
2024-04-22T02:36:24.707Z,6.03
2024-04-22T02:38:51.328Z,4.45
2024-04-22T02:41:17.934Z,5.93
2024-04-22T02:43:44.687Z,4.30
2024-04-22T02:46:11.417Z,4.53
2024-04-22T02:48:38.223Z,5.03
2024-04-22T02:51:05.184Z,7.18
2024-04-22T02:53:31.879Z,4.03
2024-04-22T02:55:58.571Z,4.28
2024-04-22T02:58:25.265Z,4.22
2024-04-22T03:00:55.535Z,3.92
2024-04-22T03:03:23.233Z,4.15
2024-04-22T03:05:50.162Z,4.00
2024-04-22T03:08:16.871Z,4.10
2024-04-22T03:10:43.702Z,9.32
2024-04-22T03:13:10.840Z,4.80
2024-04-22T03:15:38.159Z,4.95
2024-04-22T03:18:05.362Z,6.35
2024-04-22T03:20:32.638Z,4.57
2024-04-22T03:22:59.307Z,4.40
2024-04-22T03:25:25.995Z,4.38
2024-04-22T03:27:52.781Z,4.75
2024-04-22T03:30:19.454Z,4.50
2024-04-22T03:32:46.403Z,3.97
2024-04-22T03:35:13.147Z,4.20
2024-04-22T03:37:40.002Z,4.70
2024-04-22T03:40:07.773Z,4.70
2024-04-22T03:42:34.491Z,4.40
2024-04-22T03:45:01.206Z,4.63
2024-04-22T03:47:46.508Z,4.40
2024-04-22T03:50:13.283Z,3.97
2024-04-22T03:52:40.140Z,5.32
2024-04-22T03:55:07.034Z,4.68
2024-04-22T03:57:33.660Z,4.22
2024-04-22T04:00:00.370Z,3.90
2024-04-22T04:02:28.296Z,3.95
2024-04-22T04:04:55.288Z,4.35
2024-04-22T04:07:22.100Z,4.47
2024-04-22T04:09:48.954Z,3.95
2024-04-22T04:12:15.623Z,4.20
2024-04-22T04:14:42.357Z,4.20
2024-04-22T04:17:09.082Z,3.50
2024-04-22T04:19:35.918Z,4.13
2024-04-22T04:22:02.671Z,4.78
2024-04-22T04:24:29.390Z,4.05
2024-04-22T04:26:56.250Z,4.22
2024-04-22T04:29:22.982Z,4.15
2024-04-22T04:31:49.804Z,5.72
2024-04-22T04:34:16.510Z,4.45
2024-04-22T04:36:43.137Z,4.20
2024-04-22T04:39:10.571Z,3.70
2024-04-22T04:41:37.385Z,4.35
2024-04-22T04:44:04.068Z,5.85
2024-04-22T04:46:30.863Z,4.32
2024-04-22T04:48:57.531Z,4.60
2024-04-22T04:51:24.188Z,4.40
2024-04-22T04:53:51.032Z,5.60
2024-04-22T04:56:17.668Z,7.10
2024-04-22T04:58:44.359Z,9.63
2024-04-22T05:01:11.212Z,10.95
2024-04-22T05:03:38.079Z,10.93
2024-04-22T05:06:05.118Z,14.15
2024-04-22T05:08:31.767Z,9.88
2024-04-22T05:11:03.966Z,10.32
2024-04-22T05:13:30.719Z,10.70
2024-04-22T05:15:57.436Z,11.63
2024-04-22T05:18:24.118Z,12.68
2024-04-22T05:20:51.609Z,14.30
2024-04-22T05:23:18.363Z,11.23
2024-04-22T05:25:45.087Z,11.23
2024-04-22T05:28:11.834Z,7.03
2024-04-22T05:30:38.482Z,7.65
2024-04-22T05:33:27.836Z,5.70
2024-04-22T05:36:13.439Z,5.07
2024-04-22T05:38:41.268Z,4.72
2024-04-22T05:41:08.246Z,4.68
2024-04-22T05:43:34.941Z,5.13
2024-04-22T05:46:03.409Z,4.78
2024-04-22T05:48:30.971Z,4.28
2024-04-22T05:50:57.999Z,9.45
2024-04-22T05:53:24.636Z,5.70
2024-04-22T05:55:51.347Z,7.30
2024-04-22T05:58:18.009Z,4.95
2024-04-22T06:00:45.228Z,6.55
2024-04-22T06:03:11.969Z,7.05
2024-04-22T06:05:38.629Z,6.68
2024-04-22T06:08:05.716Z,9.15
2024-04-22T06:10:32.526Z,7.57
2024-04-22T06:12:59.294Z,8.07
2024-04-22T06:15:26.027Z,6.88
2024-04-22T06:17:52.681Z,6.60
2024-04-22T06:20:19.431Z,5.72
2024-04-22T06:22:46.228Z,5.75
2024-04-22T06:25:13.858Z,5.05
2024-04-22T06:27:41.310Z,5.40
2024-04-22T06:30:08.292Z,6.13
2024-04-22T06:32:37.129Z,5.28
2024-04-22T06:35:04.327Z,8.02
2024-04-22T06:37:31.085Z,5.20
2024-04-22T06:39:57.774Z,4.53
2024-04-22T06:42:24.509Z,7.95
2024-04-22T06:44:51.528Z,6.97
2024-04-22T06:47:18.748Z,4.45
2024-04-22T06:49:45.499Z,3.65
2024-04-22T06:52:12.213Z,4.82
2024-04-22T06:54:38.967Z,6.03
2024-04-22T06:57:05.733Z,5.65
2024-04-22T06:59:32.507Z,11.38
2024-04-22T07:01:59.219Z,4.47
2024-04-22T07:04:26.050Z,5.82
2024-04-22T07:06:52.733Z,9.00
2024-04-22T07:09:19.435Z,6.63
2024-04-22T07:11:46.002Z,9.32
2024-04-22T07:14:12.881Z,9.55
2024-04-22T07:16:45.772Z,5.43
2024-04-22T07:19:15.993Z,5.05
2024-04-22T07:21:42.778Z,7.63
2024-04-22T07:24:09.383Z,2.97
2024-04-22T07:26:36.090Z,6.10
2024-04-22T07:29:03.120Z,4.70
2024-04-22T07:31:30.074Z,6.75
2024-04-22T07:33:57.616Z,8.95
2024-04-22T07:36:46.894Z,4.43
2024-04-22T07:39:18.516Z,6.10
2024-04-22T07:41:45.263Z,8.02
2024-04-22T07:44:11.947Z,3.47
2024-04-22T07:46:38.649Z,7.88
2024-04-22T07:49:05.474Z,5.63
2024-04-22T07:51:32.167Z,5.10
2024-04-22T07:53:59.722Z,5.93
2024-04-22T07:56:26.638Z,5.00
2024-04-22T07:58:53.567Z,2.70
2024-04-22T08:01:20.799Z,5.03
2024-04-22T08:03:47.790Z,9.02
2024-04-22T08:06:19.358Z,2.97
2024-04-22T08:08:46.424Z,5.25
2024-04-22T08:11:13.493Z,10.73
2024-04-22T08:13:40.697Z,5.13
2024-04-22T08:16:07.564Z,9.85
2024-04-22T08:18:35.021Z,7.13
2024-04-22T08:21:03.463Z,5.95
2024-04-22T08:23:31.456Z,5.88
2024-04-22T08:25:58.150Z,6.20
2024-04-22T08:28:25.827Z,5.35
2024-04-22T08:31:03.662Z,6.28
2024-04-22T08:33:30.461Z,9.68
2024-04-22T08:35:58.143Z,7.05
2024-04-22T08:38:25.026Z,5.63
2024-04-22T08:40:52.358Z,10.45
2024-04-22T08:43:19.279Z,10.55
2024-04-22T08:45:46.452Z,5.97
2024-04-22T08:48:14.154Z,7.20
2024-04-22T08:50:42.194Z,3.75
2024-04-22T08:53:10.970Z,2.92
2024-04-22T08:55:38.795Z,7.93
2024-04-22T08:58:06.243Z,9.52
2024-04-22T09:00:33.164Z,8.35
2024-04-22T09:03:00.211Z,7.22
2024-04-22T09:05:27.225Z,3.10
2024-04-22T09:07:55.407Z,3.22
2024-04-22T09:10:55.659Z,5.60
2024-04-22T09:13:12.285Z,6.00
2024-04-22T09:15:39.290Z,7.50
2024-04-22T09:18:12.622Z,5.18
2024-04-22T09:20:39.280Z,3.92
2024-04-22T09:23:06.459Z,4.82
2024-04-22T09:25:33.338Z,3.35
2024-04-22T09:28:01.511Z,3.13
2024-04-22T09:30:39.459Z,5.03
2024-04-22T09:33:09.985Z,2.78
2024-04-22T09:35:38.739Z,3.00
2024-04-22T09:38:05.866Z,6.22
2024-04-22T09:40:33.460Z,2.58
2024-04-22T09:43:00.772Z,2.47
2024-04-22T09:45:27.551Z,2.05
2024-04-22T09:47:55.059Z,2.38
2024-04-22T09:50:22.021Z,2.75
2024-04-22T09:52:50.059Z,2.53
2024-04-22T09:55:18.110Z,2.78
2024-04-22T09:57:48.425Z,3.55
2024-04-22T10:00:17.440Z,4.07
2024-04-22T10:05:43.136Z,2.97
2024-04-22T10:08:11.371Z,3.88
2024-04-22T10:10:42.305Z,2.95
2024-04-22T10:13:11.242Z,3.25
2024-04-22T10:15:38.147Z,3.28
2024-04-22T10:18:13.894Z,4.60
2024-04-22T10:20:42.111Z,5.85
2024-04-22T10:23:09.367Z,3.25
2024-04-22T10:25:36.006Z,4.72
2024-04-22T10:28:02.667Z,7.50
2024-04-22T10:30:47.526Z,4.10
2024-04-22T10:33:14.263Z,5.53
2024-04-22T10:35:40.940Z,2.97
2024-04-22T10:38:08.211Z,3.85
2024-04-22T10:40:34.961Z,3.55
2024-04-22T10:43:01.716Z,3.03
2024-04-22T10:45:28.618Z,2.78
2024-04-22T10:48:05.287Z,4.20
2024-04-22T10:50:43.822Z,2.90
2024-04-22T10:53:10.630Z,3.80
2024-04-22T10:55:37.545Z,3.60
2024-04-22T10:58:04.602Z,2.75
2024-04-22T11:00:32.618Z,2.58
2024-04-22T11:03:04.086Z,4.30
2024-04-22T11:05:35.463Z,2.78
2024-04-22T11:10:37.884Z,3.47
2024-04-22T11:13:10.106Z,4.93
2024-04-22T11:15:37.051Z,5.38
2024-04-22T11:18:10.320Z,2.35
2024-04-22T11:20:38.740Z,3.15
2024-04-22T11:23:06.299Z,2.10
2024-04-22T11:25:33.335Z,3.35
2024-04-22T11:28:01.216Z,2.85
2024-04-22T11:30:29.307Z,2.80
2024-04-22T11:32:56.261Z,2.03
2024-04-22T11:35:23.788Z,3.40
2024-04-22T11:37:53.634Z,2.90
2024-04-22T11:40:20.350Z,2.92
2024-04-22T11:42:46.996Z,2.63
2024-04-22T11:45:14.027Z,2.67
2024-04-22T11:47:41.012Z,4.13
2024-04-22T11:50:07.871Z,4.03
2024-04-22T11:52:34.791Z,2.53
2024-04-22T11:55:01.545Z,2.88
2024-04-22T11:57:28.248Z,3.03
2024-04-22T11:59:55.012Z,2.50
2024-04-22T12:02:21.728Z,3.40
2024-04-22T12:04:48.514Z,3.05
2024-04-22T12:07:15.378Z,3.38
2024-04-22T12:09:42.115Z,3.00
2024-04-22T12:12:09.054Z,3.97
2024-04-22T12:14:36.020Z,2.45
2024-04-22T12:17:05.570Z,2.38
2024-04-22T12:19:32.332Z,3.47
2024-04-22T12:21:58.978Z,1.58
2024-04-22T12:24:25.713Z,2.03
2024-04-22T12:26:52.350Z,4.60
2024-04-22T12:29:19.018Z,1.80
2024-04-22T12:31:45.801Z,5.28
2024-04-22T12:34:13.899Z,2.95
2024-04-22T12:36:41.850Z,1.90
2024-04-22T12:39:08.657Z,1.67
2024-04-22T12:41:35.572Z,1.55
2024-04-22T12:44:04.186Z,2.42
2024-04-22T12:46:53.377Z,2.47
2024-04-22T12:49:38.752Z,1.60
2024-04-22T12:52:05.761Z,1.35
2024-04-22T12:54:33.233Z,2.47
2024-04-22T12:56:59.905Z,1.63
2024-04-22T12:59:26.482Z,3.80
2024-04-22T13:01:53.695Z,2.35
2024-04-22T13:04:21.118Z,1.90
2024-04-22T13:06:47.779Z,4.63
2024-04-22T13:09:14.710Z,2.80
2024-04-22T13:11:41.760Z,1.33
2024-04-22T13:14:08.455Z,1.50
2024-04-22T13:16:35.290Z,1.58
2024-04-22T13:19:04.435Z,3.17
2024-04-22T13:21:33.096Z,2.20
2024-04-22T13:24:00.749Z,1.63
2024-04-22T13:26:27.485Z,1.67
2024-04-22T13:28:54.136Z,7.20
2024-04-22T13:31:20.996Z,1.63
2024-04-22T13:33:47.714Z,1.98
2024-04-22T13:36:14.452Z,2.50
2024-04-22T13:38:41.132Z,1.20
2024-04-22T13:41:07.833Z,1.75
2024-04-22T13:43:34.578Z,2.25
2024-04-22T13:46:01.294Z,1.85
2024-04-22T13:48:28.016Z,1.00
2024-04-22T13:50:55.258Z,1.23
2024-04-22T13:53:26.840Z,1.33
2024-04-22T13:55:59.563Z,2.88
2024-04-22T13:58:27.015Z,1.42
2024-04-22T14:00:54.055Z,8.60
2024-04-22T14:03:20.794Z,6.88
2024-04-22T14:05:47.520Z,1.02
2024-04-22T14:08:14.153Z,3.47
2024-04-22T14:10:40.956Z,0.95
2024-04-22T14:13:07.865Z,1.05
2024-04-22T14:15:44.855Z,1.38
2024-04-22T14:18:14.885Z,1.58
2024-04-22T14:20:42.016Z,1.73
2024-04-22T14:23:08.649Z,4.07
2024-04-22T14:25:35.788Z,1.95
2024-04-22T14:28:02.619Z,2.63
2024-04-22T14:30:29.333Z,1.30
2024-04-22T14:32:56.197Z,1.77
2024-04-22T14:35:22.921Z,1.50
2024-04-22T14:37:49.681Z,7.18
2024-04-22T14:40:16.455Z,1.63
2024-04-22T14:42:43.148Z,1.52
2024-04-22T14:45:09.943Z,1.85
2024-04-22T14:47:36.654Z,2.03
2024-04-22T14:50:03.363Z,1.80
2024-04-22T14:52:30.056Z,1.30
2024-04-22T14:54:56.780Z,4.18
2024-04-22T14:57:25.088Z,3.03
2024-04-22T14:59:51.703Z,1.90
2024-04-22T15:02:18.366Z,1.88
2024-04-22T15:04:45.356Z,1.75
2024-04-22T15:07:13.238Z,2.70
2024-04-22T15:09:46.759Z,2.63
2024-04-22T15:12:14.498Z,1.88
2024-04-22T15:14:41.627Z,4.28
2024-04-22T15:17:08.874Z,5.68
2024-04-22T15:19:35.694Z,1.50
2024-04-22T15:22:02.564Z,1.55
2024-04-22T15:24:29.218Z,2.53
2024-04-22T15:26:55.952Z,1.50
2024-04-22T15:29:22.608Z,4.20
2024-04-22T15:31:49.350Z,1.90
2024-04-22T15:34:16.083Z,1.98
2024-04-22T15:36:42.871Z,1.85
2024-04-22T15:39:09.670Z,5.18
2024-04-22T15:41:37.699Z,2.28
2024-04-22T15:44:04.730Z,3.55
2024-04-22T15:46:31.601Z,3.30
2024-04-22T15:48:58.308Z,1.02
2024-04-22T15:51:25.287Z,1.38
2024-04-22T15:53:52.132Z,4.13
2024-04-22T15:56:18.933Z,1.20
2024-04-22T15:58:45.711Z,1.20
2024-04-22T16:01:12.604Z,3.58
2024-04-22T16:03:39.565Z,1.30
2024-04-22T16:08:55.727Z,1.30
2024-04-22T16:11:22.408Z,1.70
2024-04-22T16:13:49.274Z,1.30
2024-04-22T16:16:16.067Z,4.03
2024-04-22T16:18:42.804Z,2.47
2024-04-22T16:21:15.286Z,1.08
2024-04-22T16:23:44.072Z,4.65
2024-04-22T16:26:11.453Z,1.50
2024-04-22T16:28:38.502Z,2.17
2024-04-22T16:31:05.263Z,5.35
2024-04-22T16:33:31.924Z,2.88
2024-04-22T16:35:58.810Z,1.40
2024-04-22T16:38:25.832Z,3.75
2024-04-22T16:40:52.521Z,1.42
2024-04-22T16:43:22.806Z,1.65
2024-04-22T16:45:49.526Z,1.85
2024-04-22T16:48:18.406Z,3.53
2024-04-22T16:50:45.866Z,1.10
2024-04-22T16:53:12.616Z,1.55
2024-04-22T16:55:39.834Z,4.30
2024-04-22T16:58:06.789Z,2.28
2024-04-22T17:00:37.674Z,1.35
2024-04-22T17:03:06.946Z,1.63
2024-04-22T17:05:41.027Z,1.50
2024-04-22T17:08:09.142Z,1.55
2024-04-22T17:10:36.428Z,2.22
2024-04-22T17:13:05.293Z,2.05
2024-04-22T17:15:33.329Z,1.60
2024-04-22T17:18:00.694Z,1.65
2024-04-22T17:20:27.476Z,1.05
2024-04-22T17:22:58.124Z,1.50
2024-04-22T17:25:27.871Z,1.33
2024-04-22T17:27:55.989Z,1.13
2024-04-22T17:30:23.046Z,3.60
2024-04-22T17:32:49.782Z,1.10
2024-04-22T17:35:16.581Z,2.95
2024-04-22T17:37:43.778Z,2.33
2024-04-22T17:40:12.022Z,1.20
2024-04-22T17:42:38.732Z,1.50
2024-04-22T17:45:05.902Z,4.35
2024-04-22T17:47:33.237Z,1.80
2024-04-22T17:50:00.155Z,1.10
2024-04-22T17:52:26.971Z,2.08
2024-04-22T17:54:53.750Z,1.63
2024-04-22T17:57:31.022Z,1.25
2024-04-22T17:59:57.764Z,1.00
2024-04-22T18:02:24.809Z,3.65
2024-04-22T18:04:55.463Z,1.42
2024-04-22T18:07:22.758Z,1.60
2024-04-22T18:09:51.321Z,1.52
2024-04-22T18:12:18.253Z,2.88
2024-04-22T18:14:47.855Z,1.27
2024-04-22T18:17:15.007Z,1.02
2024-04-22T18:19:41.722Z,2.85
2024-04-22T18:22:14.106Z,1.98
2024-04-22T18:24:44.417Z,1.30
2024-04-22T18:27:11.033Z,1.60
2024-04-22T18:29:38.102Z,4.70
2024-04-22T18:32:05.057Z,1.80
2024-04-22T18:34:32.581Z,3.13
2024-04-22T18:36:59.286Z,1.95
2024-04-22T18:39:25.949Z,1.77
2024-04-22T18:41:52.695Z,1.40
2024-04-22T18:44:19.853Z,1.90
2024-04-22T18:46:47.139Z,1.30
2024-04-22T18:49:13.934Z,1.40
2024-04-22T18:51:40.590Z,1.30
2024-04-22T18:54:07.238Z,1.90
2024-04-22T18:56:34.019Z,1.70
2024-04-22T18:59:00.732Z,1.42
2024-04-22T19:01:27.728Z,1.33
2024-04-22T19:03:55.084Z,1.65
2024-04-22T19:06:21.743Z,1.23
2024-04-22T19:08:48.482Z,1.95
2024-04-22T19:11:15.563Z,2.00
2024-04-22T19:13:44.680Z,1.95
2024-04-22T19:16:11.563Z,2.22
2024-04-22T19:18:38.307Z,5.75
2024-04-22T19:21:05.170Z,1.23
2024-04-22T19:23:31.776Z,1.40
2024-04-22T19:25:58.475Z,1.35
2024-04-22T19:28:27.551Z,1.63
2024-04-22T19:30:56.652Z,1.40
2024-04-22T19:33:23.766Z,1.52
2024-04-22T19:35:51.707Z,1.88
2024-04-22T19:38:18.502Z,1.58
2024-04-22T19:40:46.362Z,1.30
2024-04-22T19:43:13.246Z,3.92
2024-04-22T19:45:39.901Z,1.83
2024-04-22T19:48:07.204Z,1.85
2024-04-22T19:50:33.922Z,5.70
2024-04-22T19:53:00.616Z,2.53
2024-04-22T19:55:27.619Z,2.38
2024-04-22T19:57:55.028Z,2.60
2024-04-22T20:00:24.738Z,1.55
2024-04-22T20:02:51.455Z,2.08
2024-04-22T20:05:18.259Z,3.80
2024-04-22T20:07:44.990Z,1.88
2024-04-22T20:10:11.646Z,2.30
2024-04-22T20:12:39.796Z,1.88
2024-04-22T20:15:07.963Z,1.58
2024-04-22T20:18:03.685Z,1.50
2024-04-22T20:20:30.735Z,2.63
2024-04-22T20:22:57.792Z,3.60
2024-04-22T20:25:25.201Z,1.70
2024-04-22T20:27:51.888Z,2.05
2024-04-22T20:30:21.564Z,3.35
2024-04-22T20:32:48.510Z,1.73
2024-04-22T20:35:15.269Z,2.67
2024-04-22T20:37:42.127Z,2.88
2024-04-22T20:40:09.009Z,3.92
2024-04-22T20:42:35.765Z,1.85
2024-04-22T20:45:02.477Z,2.40
2024-04-22T20:47:29.230Z,1.50
2024-04-22T20:49:55.965Z,1.88
2024-04-22T20:52:22.731Z,2.88
2024-04-22T20:54:49.382Z,2.40
2024-04-22T20:57:16.368Z,2.25
2024-04-22T20:59:43.148Z,1.88
2024-04-22T21:02:09.900Z,3.20
2024-04-22T21:04:36.671Z,2.47
2024-04-22T21:07:05.199Z,1.98
2024-04-22T21:09:31.880Z,3.13
2024-04-22T21:11:58.664Z,1.88
2024-04-22T21:14:25.368Z,1.95
2024-04-22T21:16:53.137Z,2.30
2024-04-22T21:19:20.824Z,2.42
2024-04-22T21:21:48.434Z,2.40
2024-04-22T21:24:16.283Z,2.25
2024-04-22T21:26:43.431Z,2.65
2024-04-22T21:29:10.252Z,2.65
2024-04-22T21:31:36.905Z,4.93
2024-04-22T21:34:08.631Z,2.25
2024-04-22T21:36:36.704Z,2.58
2024-04-22T21:39:04.032Z,5.97
2024-04-22T21:41:30.765Z,1.90
2024-04-22T21:43:57.777Z,2.00
2024-04-22T21:46:24.609Z,2.50
2024-04-22T21:48:55.204Z,2.47
2024-04-22T21:51:22.215Z,3.35
2024-04-22T21:53:49.160Z,4.47
2024-04-22T21:56:19.592Z,2.10
2024-04-22T21:59:27.670Z,4.27
2024-04-22T22:02:32.056Z,2.22
2024-04-22T22:05:36.555Z,2.50
2024-04-22T22:08:03.324Z,2.20
2024-04-22T22:10:30.247Z,3.45
2024-04-22T22:12:57.174Z,3.00
2024-04-22T22:15:23.878Z,2.70
2024-04-22T22:17:55.130Z,5.05
2024-04-22T22:20:22.610Z,4.85
2024-04-22T22:22:49.365Z,3.60
2024-04-22T22:25:16.079Z,3.30
2024-04-22T22:27:42.734Z,3.35
2024-04-22T22:30:15.323Z,2.67
2024-04-22T22:32:45.938Z,2.88
2024-04-22T22:35:14.211Z,2.50
2024-04-22T22:37:40.959Z,4.50
2024-04-22T22:40:09.090Z,3.90
2024-04-22T22:42:35.942Z,3.72
2024-04-22T22:45:02.553Z,4.28
2024-04-22T22:47:29.281Z,3.15
2024-04-22T22:49:56.066Z,2.58
2024-04-22T22:52:24.188Z,2.42
2024-04-22T22:54:50.884Z,2.60
2024-04-22T22:57:17.605Z,5.68
2024-04-22T22:59:44.219Z,2.50
2024-04-22T23:02:10.927Z,2.35
2024-04-22T23:04:37.687Z,2.60
2024-04-22T23:07:07.549Z,3.40
2024-04-22T23:09:34.171Z,3.20
2024-04-22T23:12:02.123Z,2.67
2024-04-22T23:14:29.331Z,2.83
2024-04-22T23:16:57.276Z,2.70
2024-04-22T23:19:24.209Z,2.65
2024-04-22T23:21:53.390Z,2.47
2024-04-22T23:24:21.445Z,2.00
2024-04-22T23:26:52.079Z,2.83
2024-04-22T23:29:18.902Z,6.15
2024-04-22T23:31:45.625Z,5.22
2024-04-22T23:34:12.357Z,3.08
2024-04-22T23:36:47.520Z,3.03
2024-04-22T23:39:14.374Z,2.50
2024-04-22T23:41:41.426Z,2.83
2024-04-22T23:44:08.074Z,3.67
2024-04-22T23:46:34.731Z,3.00
2024-04-22T23:49:01.440Z,4.22
2024-04-22T23:51:28.083Z,2.80
2024-04-22T23:53:55.541Z,3.20
2024-04-22T23:56:22.499Z,2.67
2024-04-22T23:58:49.115Z,2.90
